createdAt,value
2022-10-05T00:00:58.104Z,97164.25
2022-10-05T00:03:26.478Z,97157.59
2022-10-05T00:05:55.002Z,97154.97
2022-10-05T00:08:25.215Z,97154.97
2022-10-05T00:10:53.889Z,97155.72
2022-10-05T00:13:23.832Z,97152.84
2022-10-05T00:15:59.165Z,97160.78
2022-10-05T00:18:28.264Z,97161.44
2022-10-05T00:20:56.317Z,97155.28
2022-10-05T00:23:30.765Z,97151.59
2022-10-05T00:26:07.879Z,97150.13
2022-10-05T00:28:36.410Z,97148.97
2022-10-05T00:31:16.219Z,97147.59
2022-10-05T00:33:44.220Z,97154.44
2022-10-05T00:36:12.212Z,97156.16
2022-10-05T00:38:40.893Z,97148.34
2022-10-05T00:41:12.982Z,97150.13
2022-10-05T00:44:03.711Z,97143.06
2022-10-05T00:46:41.657Z,97143.06
2022-10-05T00:49:23.476Z,97143.28
2022-10-05T00:52:01.443Z,97142.22
2022-10-05T00:54:36.170Z,97138.19
2022-10-05T00:57:20.148Z,97133.88
2022-10-05T01:00:02.363Z,97142.91
2022-10-05T01:02:44.487Z,97147.13
2022-10-05T01:05:17.628Z,97145.34
2022-10-05T01:07:52.979Z,97134.16
2022-10-05T01:10:31.839Z,97145.75
2022-10-05T01:13:06.467Z,97144.78
2022-10-05T01:15:42.726Z,97147.22
2022-10-05T01:18:19.283Z,97144.78
2022-10-05T01:20:56.454Z,97150.19
2022-10-05T01:23:57.052Z,97139.66
2022-10-05T01:27:00.939Z,97146.59
2022-10-05T01:29:36.560Z,97141.53
2022-10-05T01:32:14.961Z,97142.38
2022-10-05T01:34:45.467Z,97139.94
2022-10-05T01:37:19.963Z,97141.16
2022-10-05T01:39:57.957Z,97142.88
2022-10-05T01:42:34.803Z,97133.47
2022-10-05T01:45:12.156Z,97128.28
2022-10-05T01:47:46.069Z,97138.72
2022-10-05T01:50:27.123Z,97145.03
2022-10-05T01:53:05.785Z,97139.09
2022-10-05T01:55:42.208Z,97135.72
2022-10-05T01:58:22.063Z,97133.09
2022-10-05T02:01:01.389Z,97121.91
2022-10-05T02:03:36.740Z,97116.56
2022-10-05T02:06:11.049Z,97115.50
2022-10-05T02:08:42.071Z,97122.25
2022-10-05T02:11:14.560Z,97117.94
2022-10-05T02:13:47.756Z,97113.59
2022-10-05T02:16:22.095Z,97116.25
2022-10-05T02:18:53.472Z,97116.16
2022-10-05T02:21:23.214Z,97109.28
2022-10-05T02:23:56.670Z,97102.13
2022-10-05T02:26:26.033Z,97103.06
2022-10-05T02:28:59.190Z,97104.84
2022-10-05T02:31:39.152Z,97102.13
2022-10-05T02:34:25.829Z,97100.63
2022-10-05T02:37:11.091Z,97097.91
2022-10-05T02:39:52.158Z,97091.69
2022-10-05T02:42:27.904Z,97091.91
2022-10-05T02:45:08.431Z,97099.34
2022-10-05T02:47:44.669Z,97102.63
2022-10-05T02:50:20.619Z,97099.34
2022-10-05T02:52:54.305Z,97104.06
2022-10-05T02:55:30.960Z,97112.16
2022-10-05T02:58:05.722Z,97113.47
2022-10-05T03:00:41.786Z,97115.38
2022-10-05T03:03:19.563Z,97108.31
2022-10-05T03:05:52.459Z,97116.28
2022-10-05T03:08:25.855Z,97119.88
2022-10-05T03:11:03.217Z,97127.03
2022-10-05T03:13:41.629Z,97131.75
2022-10-05T03:16:31.421Z,97118.03
2022-10-05T03:19:12.825Z,97115.00
2022-10-05T03:21:53.563Z,97115.75
2022-10-05T03:24:38.747Z,97102.56
2022-10-05T03:27:17.712Z,97102.88
2022-10-05T03:29:51.643Z,97102.22
2022-10-05T03:32:26.350Z,97097.88
2022-10-05T03:35:04.674Z,97097.97
2022-10-05T03:37:45.507Z,97094.41
2022-10-05T03:40:24.462Z,97088.19
2022-10-05T03:43:02.487Z,97080.69
2022-10-05T03:45:38.544Z,97074.75
2022-10-05T03:48:10.966Z,97071.19
2022-10-05T03:50:47.065Z,97078.91
2022-10-05T03:53:20.911Z,97075.50
2022-10-05T03:55:56.482Z,97076.56
2022-10-05T03:58:29.056Z,97070.44
2022-10-05T04:01:01.742Z,97065.81
2022-10-05T04:03:35.569Z,97061.59
2022-10-05T04:06:12.354Z,97063.66
2022-10-05T04:08:48.051Z,97066.97
2022-10-05T04:11:21.199Z,97069.59
2022-10-05T04:13:53.556Z,97065.25
2022-10-05T04:16:27.824Z,97059.06
2022-10-05T04:19:02.313Z,97065.34
2022-10-05T04:21:35.787Z,97062.63
2022-10-05T04:24:10.483Z,97063.00
2022-10-05T04:26:44.954Z,97065.19
2022-10-05T04:29:22.398Z,97056.34
2022-10-05T04:32:04.662Z,97057.28
2022-10-05T04:34:59.217Z,97061.13
2022-10-05T04:37:45.605Z,97065.94
2022-10-05T04:40:29.756Z,97053.44
2022-10-05T04:43:04.894Z,97052.78
2022-10-05T04:45:46.519Z,97056.44
2022-10-05T04:48:31.831Z,97054.84
2022-10-05T04:51:11.370Z,97056.72
2022-10-05T04:53:48.029Z,97052.31
2022-10-05T04:56:21.092Z,97068.13
2022-10-05T04:59:11.343Z,97057.94
2022-10-05T05:01:57.188Z,97066.41
2022-10-05T05:04:41.931Z,97070.06
2022-10-05T05:07:22.376Z,97079.63
2022-10-05T05:10:27.711Z,97075.53
2022-10-05T05:13:06.170Z,97083.78
2022-10-05T05:15:44.561Z,97088.28
2022-10-05T05:18:42.190Z,97094.50
2022-10-05T05:21:23.260Z,97097.88
2022-10-05T05:23:58.770Z,97100.31
2022-10-05T05:26:38.894Z,97096.16
2022-10-05T05:29:18.814Z,97096.28
2022-10-05T05:31:53.166Z,97097.88
2022-10-05T05:34:37.639Z,97096.84
2022-10-05T05:37:14.450Z,97111.31
2022-10-05T05:39:51.379Z,97108.69
2022-10-05T05:42:35.332Z,97108.75
2022-10-05T05:45:15.759Z,97106.13
2022-10-05T05:47:51.955Z,97106.88
2022-10-05T05:50:33.423Z,97108.28
2022-10-05T05:53:11.868Z,97106.91
2022-10-05T05:55:43.469Z,97110.66
2022-10-05T05:58:21.629Z,97104.28
2022-10-05T06:00:55.006Z,97108.31
2022-10-05T06:03:28.579Z,97113.50
2022-10-05T06:06:00.830Z,97115.19
2022-10-05T06:08:37.959Z,97121.19
2022-10-05T06:11:19.444Z,97125.06
2022-10-05T06:13:50.562Z,97126.50
2022-10-05T06:16:24.590Z,97123.66
2022-10-05T06:18:57.187Z,97123.47
2022-10-05T06:21:33.219Z,97134.75
2022-10-05T06:24:06.935Z,97137.09
2022-10-05T06:27:15.601Z,97151.66
2022-10-05T06:30:00.029Z,97139.72
2022-10-05T06:32:32.318Z,97145.66
2022-10-05T06:35:09.549Z,97147.91
2022-10-05T06:37:56.554Z,97160.59
2022-10-05T06:40:36.303Z,97153.81
2022-10-05T06:43:16.894Z,97151.66
2022-10-05T06:46:12.952Z,97159.06
2022-10-05T06:49:19.581Z,97151.44
2022-10-05T06:52:16.014Z,97156.13
2022-10-05T06:54:55.389Z,97154.72
2022-10-05T06:57:46.967Z,97157.59
2022-10-05T07:00:20.609Z,97153.59
2022-10-05T07:02:59.828Z,97150.38
2022-10-05T07:06:03.608Z,97165.38
2022-10-05T07:09:00.211Z,97155.16
2022-10-05T07:11:57.326Z,97147.72
2022-10-05T07:14:44.742Z,97156.81
2022-10-05T07:17:30.851Z,97148.47
2022-10-05T07:20:16.242Z,97159.06
2022-10-05T07:23:18.251Z,97153.03
2022-10-05T07:25:52.934Z,97150.19
2022-10-05T07:28:29.743Z,97154.84
2022-10-05T07:31:04.438Z,97153.34
2022-10-05T07:33:39.867Z,97157.66
2022-10-05T07:36:32.256Z,97156.38
2022-10-05T07:39:06.263Z,97151.59
2022-10-05T07:41:41.149Z,97159.94
2022-10-05T07:44:16.997Z,97147.97
2022-10-05T07:46:54.436Z,97160.84
2022-10-05T07:49:35.567Z,97166.75
2022-10-05T07:52:10.970Z,97167.28
2022-10-05T07:54:49.120Z,97158.03
2022-10-05T07:57:24.690Z,97170.81
2022-10-05T08:00:01.450Z,97164.59
2022-10-05T08:02:36.031Z,97166.56
2022-10-05T08:05:10.863Z,97166.22
2022-10-05T08:07:41.336Z,97175.03
2022-10-05T08:10:22.977Z,97168.31
2022-10-05T08:13:03.211Z,97168.06
2022-10-05T08:15:35.521Z,97170.75
2022-10-05T08:18:10.241Z,97165.09
2022-10-05T08:20:45.471Z,97167.16
2022-10-05T08:23:22.453Z,97161.63
2022-10-05T08:26:00.568Z,97173.97
2022-10-05T08:28:34.446Z,97167.44
2022-10-05T08:31:09.595Z,97160.00
2022-10-05T08:33:47.273Z,97163.59
2022-10-05T08:36:21.030Z,97153.94
2022-10-05T08:38:55.220Z,97151.06
2022-10-05T08:41:52.697Z,97147.66
2022-10-05T08:45:10.460Z,97142.34
2022-10-05T08:48:05.311Z,97148.94
2022-10-05T08:51:05.900Z,97156.53
2022-10-05T08:53:52.180Z,97154.00
2022-10-05T08:56:34.863Z,97156.97
2022-10-05T08:59:16.036Z,97150.66
2022-10-05T09:02:05.010Z,97153.78
2022-10-05T09:04:47.593Z,97150.88
2022-10-05T09:07:41.600Z,97143.81
2022-10-05T09:10:39.348Z,97142.56
2022-10-05T09:13:50.047Z,97145.69
2022-10-05T09:16:35.853Z,97148.78
2022-10-05T09:19:34.337Z,97141.31
2022-10-05T09:22:15.181Z,97143.03
2022-10-05T09:24:57.172Z,97149.25
2022-10-05T09:27:38.120Z,97142.13
2022-10-05T09:30:18.504Z,97139.75
2022-10-05T09:33:18.040Z,97136.91
2022-10-05T09:36:24.881Z,97142.56
2022-10-05T09:39:23.937Z,97138.22
2022-10-05T09:42:23.179Z,97128.22
2022-10-05T09:45:29.263Z,97137.25
2022-10-05T09:48:32.294Z,97129.97
2022-10-05T09:51:29.537Z,97127.75
2022-10-05T09:54:47.810Z,97127.81
2022-10-05T09:57:37.012Z,97120.41
2022-10-05T10:00:16.659Z,97112.41
2022-10-05T10:03:08.479Z,97119.00
2022-10-05T10:06:06.392Z,97114.94
2022-10-05T10:08:45.355Z,97114.69
2022-10-05T10:11:32.395Z,97112.72
2022-10-05T10:14:39.366Z,97104.44
2022-10-05T10:17:33.539Z,97107.81
2022-10-05T10:20:18.432Z,97100.94
2022-10-05T10:23:19.398Z,97099.28
2022-10-05T10:26:01.067Z,97099.41
2022-10-05T10:28:46.336Z,97100.38
2022-10-05T10:31:29.959Z,97101.63
2022-10-05T10:34:22.261Z,97097.28
2022-10-05T10:37:11.288Z,97094.03
2022-10-05T10:39:55.343Z,97091.50
2022-10-05T10:42:42.944Z,97091.50
2022-10-05T10:45:21.128Z,97089.31
2022-10-05T10:48:00.247Z,97089.06
2022-10-05T10:51:10.697Z,97089.63
2022-10-05T10:54:15.067Z,97091.00
2022-10-05T10:56:57.265Z,97079.47
2022-10-05T11:00:04.783Z,97085.47
2022-10-05T11:03:10.312Z,97080.38
2022-10-05T11:06:13.439Z,97077.66
2022-10-05T11:09:09.868Z,97073.28
2022-10-05T11:12:34.377Z,97071.69
2022-10-05T11:15:19.474Z,97076.84
2022-10-05T11:17:59.179Z,97066.59
2022-10-05T11:20:57.487Z,97069.06
2022-10-05T11:23:39.255Z,97062.41
2022-10-05T11:26:29.708Z,97051.44
2022-10-05T11:29:18.537Z,97047.88
2022-10-05T11:32:07.153Z,97051.50
2022-10-05T11:34:44.841Z,97043.63
2022-10-05T11:37:59.149Z,97048.50
2022-10-05T11:41:11.832Z,97047.75
2022-10-05T11:44:19.229Z,97046.22
2022-10-05T11:46:55.804Z,97033.22
2022-10-05T11:49:36.564Z,97037.41
2022-10-05T11:52:11.570Z,97032.91
2022-10-05T11:55:17.153Z,97027.25
2022-10-05T11:57:51.371Z,97025.84
2022-10-05T12:00:22.688Z,97025.38
2022-10-05T12:03:12.979Z,97020.56
2022-10-05T12:05:54.237Z,97020.13
2022-10-05T12:08:35.870Z,97017.47
2022-10-05T12:11:26.885Z,97013.91
2022-10-05T12:14:02.147Z,97013.56
2022-10-05T12:16:41.535Z,97009.66
2022-10-05T12:19:15.307Z,97009.00
2022-10-05T12:21:47.427Z,97003.53
2022-10-05T12:24:26.517Z,96999.00
2022-10-05T12:26:59.961Z,96997.00
2022-10-05T12:29:33.434Z,96994.72
2022-10-05T12:32:11.674Z,96995.75
2022-10-05T12:34:50.224Z,96990.41
2022-10-05T12:37:41.821Z,96987.09
2022-10-05T12:40:23.224Z,96989.44
2022-10-05T12:43:03.398Z,96991.13
2022-10-05T12:45:53.790Z,96989.09
2022-10-05T12:48:37.594Z,96998.34
2022-10-05T12:51:15.335Z,97000.56
2022-10-05T12:53:53.228Z,96989.00
2022-10-05T12:56:31.841Z,96990.84
2022-10-05T12:59:10.302Z,96989.50
2022-10-05T13:01:44.414Z,96988.00
2022-10-05T13:04:24.557Z,96986.66
2022-10-05T13:07:10.736Z,96978.28
2022-10-05T13:09:43.346Z,96974.78
2022-10-05T13:12:20.860Z,96971.91
2022-10-05T13:14:57.921Z,96967.88
2022-10-05T13:17:36.914Z,96978.78
2022-10-05T13:20:15.680Z,96981.81
2022-10-05T13:22:46.183Z,96979.78
2022-10-05T13:25:26.630Z,96973.25
2022-10-05T13:28:09.952Z,96974.25
2022-10-05T13:30:41.953Z,96974.41
2022-10-05T13:33:20.526Z,96980.44
2022-10-05T13:36:00.553Z,96980.44
2022-10-05T13:38:42.049Z,96981.13
2022-10-05T13:41:19.365Z,96979.44
2022-10-05T13:43:58.925Z,96979.94
2022-10-05T13:46:36.909Z,96987.66
2022-10-05T13:49:20.717Z,96982.63
2022-10-05T13:51:59.216Z,96975.06
2022-10-05T13:54:38.110Z,96985.28
2022-10-05T13:57:21.135Z,96980.78
2022-10-05T13:59:54.956Z,96989.16
2022-10-05T14:02:27.543Z,96979.75
2022-10-05T14:05:01.130Z,96984.63
2022-10-05T14:07:35.270Z,96983.44
2022-10-05T14:10:08.283Z,96980.94
2022-10-05T14:12:40.798Z,96984.13
2022-10-05T14:15:21.581Z,96978.75
2022-10-05T14:17:51.410Z,96980.94
2022-10-05T14:20:34.157Z,96980.44
2022-10-05T14:23:12.079Z,96976.59
2022-10-05T14:25:50.198Z,96978.09
2022-10-05T14:28:28.383Z,96975.75
2022-10-05T14:31:01.441Z,96975.25
2022-10-05T14:33:32.627Z,96968.88
2022-10-05T14:36:01.299Z,96977.59
2022-10-05T14:38:33.492Z,96977.25
2022-10-05T14:41:06.192Z,96971.91
2022-10-05T14:43:35.223Z,96974.06
2022-10-05T14:46:16.202Z,96969.69
2022-10-05T14:48:46.020Z,96970.72
2022-10-05T14:51:31.848Z,96966.50
2022-10-05T14:54:04.142Z,96968.72
2022-10-05T14:56:45.329Z,96965.19
2022-10-05T14:59:30.196Z,96971.06
2022-10-05T15:02:08.121Z,96970.03
2022-10-05T15:04:43.716Z,96966.22
2022-10-05T15:07:23.832Z,96970.72
2022-10-05T15:10:03.800Z,96962.84
2022-10-05T15:12:34.423Z,96951.44
2022-10-05T15:15:06.770Z,96969.72
2022-10-05T15:17:40.506Z,96954.50
2022-10-05T15:20:24.477Z,96970.03
2022-10-05T15:23:02.692Z,96965.06
2022-10-05T15:25:40.307Z,96965.38
2022-10-05T15:28:17.251Z,96970.09
2022-10-05T15:30:59.374Z,96965.22
2022-10-05T15:33:35.472Z,96962.72
2022-10-05T15:36:10.476Z,96972.09
2022-10-05T15:38:50.301Z,96972.75
2022-10-05T15:41:24.759Z,96971.59
2022-10-05T15:44:06.222Z,96976.28
2022-10-05T15:46:40.380Z,96976.78
2022-10-05T15:49:24.551Z,96975.09
2022-10-05T15:52:03.455Z,96984.28
2022-10-05T15:55:10.060Z,96985.94
2022-10-05T15:57:46.482Z,96984.09
2022-10-05T16:00:16.664Z,96991.13
2022-10-05T16:02:51.942Z,96995.63
2022-10-05T16:05:56.068Z,96992.78
2022-10-05T16:08:55.079Z,96989.09
2022-10-05T16:11:41.329Z,96989.41
2022-10-05T16:14:28.310Z,96992.94
2022-10-05T16:17:09.245Z,97000.28
2022-10-05T16:19:46.738Z,97003.13
2022-10-05T16:22:24.759Z,96997.06
2022-10-05T16:25:09.191Z,97008.25
2022-10-05T16:28:05.229Z,97006.06
2022-10-05T16:30:44.974Z,97008.56
2022-10-05T16:33:19.924Z,97016.56
2022-10-05T16:35:55.923Z,97011.03
2022-10-05T16:38:33.009Z,97020.22
2022-10-05T16:41:07.988Z,97017.34
2022-10-05T16:43:45.847Z,97032.22
2022-10-05T16:46:27.907Z,97026.66
2022-10-05T16:49:06.479Z,97033.25
2022-10-05T16:51:41.883Z,97022.88
2022-10-05T16:54:18.266Z,97036.03
2022-10-05T16:56:51.006Z,97030.47
2022-10-05T16:59:55.215Z,97033.06
2022-10-05T17:02:39.172Z,97031.88
2022-10-05T17:05:22.645Z,97040.69
2022-10-05T17:08:02.556Z,97049.31
2022-10-05T17:10:49.596Z,97043.06
2022-10-05T17:13:36.739Z,97046.81
2022-10-05T17:16:11.927Z,97052.09
2022-10-05T17:19:26.757Z,97048.66
2022-10-05T17:22:00.709Z,97047.19
2022-10-05T17:24:42.234Z,97056.63
2022-10-05T17:27:20.464Z,97058.19
2022-10-05T17:29:52.391Z,97061.97
2022-10-05T17:32:56.216Z,97069.13
2022-10-05T17:35:50.747Z,97063.03
2022-10-05T17:38:21.788Z,97066.28
2022-10-05T17:41:17.932Z,97072.63
2022-10-05T17:44:20.231Z,97073.41
2022-10-05T17:46:50.753Z,97076.50
2022-10-05T17:50:08.034Z,97076.69
2022-10-05T17:52:58.780Z,97082.09
2022-10-05T17:56:02.368Z,97086.06
2022-10-05T17:59:06.172Z,97077.50
2022-10-05T18:01:37.241Z,97084.16
2022-10-05T18:04:32.470Z,97089.78
2022-10-05T18:07:15.200Z,97091.91
2022-10-05T18:10:02.237Z,97094.84
2022-10-05T18:12:49.717Z,97105.13
2022-10-05T18:15:46.458Z,97115.06
2022-10-05T18:18:35.785Z,97112.41
2022-10-05T18:21:28.111Z,97114.09
2022-10-05T18:24:07.298Z,97119.31
2022-10-05T18:26:53.258Z,97122.97
2022-10-05T18:29:55.585Z,97122.53
2022-10-05T18:32:33.575Z,97120.88
2022-10-05T18:35:08.448Z,97122.25
2022-10-05T18:37:48.837Z,97126.03
2022-10-05T18:40:37.091Z,97120.59
2022-10-05T18:43:20.673Z,97120.47
2022-10-05T18:46:01.413Z,97125.91
2022-10-05T18:48:36.911Z,97120.47
2022-10-05T18:51:15.635Z,97127.47
2022-10-05T18:53:47.905Z,97128.16
2022-10-05T18:56:25.744Z,97129.53
2022-10-05T18:59:11.293Z,97137.13
2022-10-05T19:02:07.038Z,97142.59
2022-10-05T19:04:48.370Z,97148.91
2022-10-05T19:07:24.924Z,97155.63
2022-10-05T19:10:04.653Z,97156.59
2022-10-05T19:12:45.541Z,97151.56
2022-10-05T19:15:24.768Z,97155.75
2022-10-05T19:18:09.211Z,97155.22
2022-10-05T19:20:42.914Z,97162.06
2022-10-05T19:23:27.953Z,97173.84
2022-10-05T19:26:02.738Z,97179.19
2022-10-05T19:28:36.354Z,97190.50
2022-10-05T19:31:22.162Z,97186.31
2022-10-05T19:34:04.654Z,97189.78
2022-10-05T19:36:41.857Z,97191.31
2022-10-05T19:39:16.818Z,97200.41
2022-10-05T19:41:54.859Z,97199.66
2022-10-05T19:44:42.565Z,97204.78
2022-10-05T19:47:19.951Z,97211.75
2022-10-05T19:49:59.277Z,97205.16
2022-10-05T19:52:31.098Z,97209.72
2022-10-05T19:55:06.771Z,97216.38
2022-10-05T19:57:35.001Z,97226.59
2022-10-05T20:00:03.806Z,97223.59
2022-10-05T20:02:38.656Z,97225.38
2022-10-05T20:05:10.263Z,97238.06
2022-10-05T20:07:38.842Z,97237.16
2022-10-05T20:10:26.628Z,97247.19
2022-10-05T20:12:57.527Z,97254.16
2022-10-05T20:15:45.334Z,97247.41
2022-10-05T20:18:58.698Z,97256.59
2022-10-05T20:21:47.323Z,97262.44
2022-10-05T20:24:17.085Z,97269.31
2022-10-05T20:27:05.411Z,97273.81
2022-10-05T20:29:36.393Z,97276.59
2022-10-05T20:32:08.718Z,97283.47
2022-10-05T20:34:41.335Z,97288.78
2022-10-05T20:37:09.623Z,97279.25
2022-10-05T20:39:37.566Z,97281.69
2022-10-05T20:42:05.901Z,97290.59
2022-10-05T20:44:33.952Z,97292.31
2022-10-05T20:47:02.248Z,97298.34
2022-10-05T20:49:31.022Z,97302.94
2022-10-05T20:52:00.900Z,97312.25
2022-10-05T20:54:28.883Z,97314.53
2022-10-05T20:56:57.578Z,97318.78
2022-10-05T20:59:26.861Z,97323.25
2022-10-05T21:01:54.901Z,97329.75
2022-10-05T21:04:24.758Z,97327.81
2022-10-05T21:06:52.914Z,97333.97
2022-10-05T21:09:22.368Z,97331.44
2022-10-05T21:11:52.904Z,97334.59
2022-10-05T21:14:20.885Z,97337.09
2022-10-05T21:16:48.765Z,97343.38
2022-10-05T21:19:17.452Z,97345.22
2022-10-05T21:21:46.912Z,97344.72
2022-10-05T21:24:17.304Z,97350.41
2022-10-05T21:26:46.643Z,97352.19
2022-10-05T21:29:14.601Z,97348.31
2022-10-05T21:31:42.571Z,97344.34
2022-10-05T21:34:10.513Z,97351.59
2022-10-05T21:36:38.560Z,97353.84
2022-10-05T21:39:06.492Z,97356.03
2022-10-05T21:41:34.622Z,97359.03
2022-10-05T21:44:04.106Z,97359.16
2022-10-05T21:46:32.114Z,97367.09
2022-10-05T21:49:00.168Z,97369.25
2022-10-05T21:51:29.768Z,97375.75
2022-10-05T21:54:02.709Z,97372.41
2022-10-05T21:56:36.010Z,97370.69
2022-10-05T21:59:08.609Z,97372.63
2022-10-05T22:01:36.627Z,97372.63
2022-10-05T22:04:04.822Z,97379.13
2022-10-05T22:06:33.251Z,97385.16
2022-10-05T22:09:01.355Z,97385.28
2022-10-05T22:11:30.064Z,97379.34
2022-10-05T22:14:02.392Z,97383.22
2022-10-05T22:16:34.893Z,97384.41
2022-10-05T22:19:04.951Z,97378.38
2022-10-05T22:21:37.832Z,97381.97
2022-10-05T22:24:06.368Z,97388.34
2022-10-05T22:26:36.020Z,97388.56
2022-10-05T22:29:04.730Z,97388.91
2022-10-05T22:31:34.109Z,97395.53
2022-10-05T22:34:02.107Z,97386.22
2022-10-05T22:36:30.077Z,97389.75
2022-10-05T22:38:58.448Z,97393.31
2022-10-05T22:41:26.435Z,97391.00
2022-10-05T22:43:54.312Z,97392.72
2022-10-05T22:46:22.271Z,97405.25
2022-10-05T22:48:51.568Z,97395.47
2022-10-05T22:51:19.648Z,97405.25
2022-10-05T22:53:47.591Z,97405.44
2022-10-05T22:56:16.305Z,97394.97
2022-10-05T22:58:45.488Z,97399.59
2022-10-05T23:01:15.639Z,97408.75
2022-10-05T23:03:44.066Z,97406.31
2022-10-05T23:06:15.551Z,97405.81
2022-10-05T23:08:44.318Z,97405.91
2022-10-05T23:11:15.270Z,97410.72
2022-10-05T23:13:43.601Z,97414.31
2022-10-05T23:16:13.210Z,97412.53
2022-10-05T23:18:41.498Z,97412.75
2022-10-05T23:21:10.515Z,97416.47
2022-10-05T23:23:41.387Z,97417.31
2022-10-05T23:26:11.937Z,97413.19
2022-10-05T23:28:43.090Z,97420.28
2022-10-05T23:31:11.093Z,97422.81
2022-10-05T23:33:39.053Z,97429.06
2022-10-05T23:36:09.641Z,97420.38
2022-10-05T23:38:38.955Z,97425.91
2022-10-05T23:41:08.716Z,97427.19
2022-10-05T23:43:37.325Z,97422.84
2022-10-05T23:46:06.672Z,97432.94
2022-10-05T23:48:37.918Z,97431.53
2022-10-05T23:51:06.562Z,97435.81
2022-10-05T23:53:34.476Z,97427.97
2022-10-05T23:56:04.493Z,97437.38
2022-10-05T23:58:32.529Z,97431.78
